createdAt,value
2019-04-29T00:00:47.000Z,98941
2019-04-29T00:02:17.000Z,98941
2019-04-29T00:04:20.000Z,98940
2019-04-29T00:05:48.000Z,98941
2019-04-29T00:09:33.000Z,98942
2019-04-29T00:10:07.000Z,98943
2019-04-29T00:11:35.000Z,98947
2019-04-29T00:13:42.000Z,98949
2019-04-29T00:15:13.000Z,98949
2019-04-29T00:17:21.000Z,98949
2019-04-29T00:18:49.000Z,98950
2019-04-29T00:20:54.000Z,98950
2019-04-29T00:22:23.000Z,98950
2019-04-29T00:24:29.000Z,98949
2019-04-29T00:25:56.000Z,98947
2019-04-29T00:28:06.000Z,98944
2019-04-29T00:29:33.000Z,98944
2019-04-29T00:31:46.000Z,98942
2019-04-29T00:33:18.000Z,98945
2019-04-29T00:35:25.000Z,98945
2019-04-29T00:36:56.000Z,98946
2019-04-29T00:39:00.000Z,98945
2019-04-29T00:40:30.000Z,98943
2019-04-29T00:42:43.000Z,98942
2019-04-29T00:44:14.000Z,98941
2019-04-29T00:46:24.000Z,98942
2019-04-29T00:47:53.000Z,98943
2019-04-29T00:50:00.000Z,98942
2019-04-29T00:51:27.000Z,98943
2019-04-29T00:53:37.000Z,98943
2019-04-29T00:55:07.000Z,98944
2019-04-29T00:57:18.000Z,98943
2019-04-29T00:58:47.000Z,98942
2019-04-29T01:00:57.000Z,98942
2019-04-29T01:02:24.000Z,98942
2019-04-29T01:04:35.000Z,98944
2019-04-29T01:06:03.000Z,98945
2019-04-29T01:08:17.000Z,98947
2019-04-29T01:09:51.000Z,98947
2019-04-29T01:12:01.000Z,98948
2019-04-29T01:13:33.000Z,98947
2019-04-29T01:15:43.000Z,98945
2019-04-29T01:17:11.000Z,98943
2019-04-29T01:19:22.000Z,98946
2019-04-29T01:20:51.000Z,98947
2019-04-29T01:23:01.000Z,98947
2019-04-29T01:24:30.000Z,98946
2019-04-29T01:26:43.000Z,98947
2019-04-29T01:28:13.000Z,98949
2019-04-29T01:31:57.000Z,98949
2019-04-29T01:37:44.000Z,98945
2019-04-29T01:39:06.000Z,98946
2019-04-29T01:41:07.000Z,98947
2019-04-29T01:42:29.000Z,98947
2019-04-29T01:44:30.000Z,98945
2019-04-29T01:45:52.000Z,98945
2019-04-29T01:47:53.000Z,98945
2019-04-29T01:49:15.000Z,98945
2019-04-29T01:51:16.000Z,98946
2019-04-29T01:52:39.000Z,98947
2019-04-29T01:54:42.000Z,98949
2019-04-29T01:56:05.000Z,98951
2019-04-29T01:58:08.000Z,98949
2019-04-29T01:59:31.000Z,98951
2019-04-29T02:01:32.000Z,98950
2019-04-29T02:02:54.000Z,98951
2019-04-29T02:04:55.000Z,98952
2019-04-29T02:06:18.000Z,98951
2019-04-29T02:08:19.000Z,98953
2019-04-29T02:09:43.000Z,98952
2019-04-29T02:11:44.000Z,98955
2019-04-29T02:13:06.000Z,98957
2019-04-29T02:15:07.000Z,98956
2019-04-29T02:16:30.000Z,98955
2019-04-29T02:18:31.000Z,98954
2019-04-29T02:19:53.000Z,98953
2019-04-29T02:21:54.000Z,98951
2019-04-29T02:23:16.000Z,98951
2019-04-29T02:25:18.000Z,98952
2019-04-29T02:26:40.000Z,98950
2019-04-29T02:28:41.000Z,98953
2019-04-29T02:30:04.000Z,98957
2019-04-29T02:32:06.000Z,98959
2019-04-29T02:33:29.000Z,98960
2019-04-29T02:35:30.000Z,98961
2019-04-29T02:36:53.000Z,98961
2019-04-29T02:38:54.000Z,98961
2019-04-29T02:40:16.000Z,98958
2019-04-29T02:42:16.000Z,98957
2019-04-29T02:43:38.000Z,98955
2019-04-29T02:45:41.000Z,98953
2019-04-29T02:47:04.000Z,98950
2019-04-29T02:49:06.000Z,98946
2019-04-29T02:50:30.000Z,98944
2019-04-29T02:52:30.000Z,98942
2019-04-29T02:53:52.000Z,98942
2019-04-29T02:55:54.000Z,98941
2019-04-29T02:57:17.000Z,98941
2019-04-29T02:59:18.000Z,98941
2019-04-29T03:00:41.000Z,98940
2019-04-29T03:02:42.000Z,98937
2019-04-29T03:04:06.000Z,98936
2019-04-29T03:06:07.000Z,98939
2019-04-29T03:07:29.000Z,98940
2019-04-29T03:09:31.000Z,98939
2019-04-29T03:10:52.000Z,98939
2019-04-29T03:12:54.000Z,98939
2019-04-29T03:14:18.000Z,98941
2019-04-29T03:16:19.000Z,98940
2019-04-29T03:17:41.000Z,98940
2019-04-29T03:19:44.000Z,98938
2019-04-29T03:21:07.000Z,98934
2019-04-29T03:23:09.000Z,98933
2019-04-29T03:24:31.000Z,98931
2019-04-29T03:26:34.000Z,98930
2019-04-29T03:27:57.000Z,98928
2019-04-29T03:30:00.000Z,98929
2019-04-29T03:31:24.000Z,98928
2019-04-29T03:33:28.000Z,98930
2019-04-29T03:34:52.000Z,98929
2019-04-29T03:36:54.000Z,98932
2019-04-29T03:38:17.000Z,98934
2019-04-29T03:40:22.000Z,98939
2019-04-29T03:41:46.000Z,98940
2019-04-29T03:43:54.000Z,98938
2019-04-29T03:45:16.000Z,98936
2019-04-29T03:47:19.000Z,98937
2019-04-29T03:48:45.000Z,98941
2019-04-29T03:50:48.000Z,98942
2019-04-29T03:52:11.000Z,98943
2019-04-29T03:54:12.000Z,98943
2019-04-29T03:55:38.000Z,98945
2019-04-29T03:57:41.000Z,98946
2019-04-29T03:59:08.000Z,98947
2019-04-29T04:01:17.000Z,98948
2019-04-29T04:02:42.000Z,98952
2019-04-29T04:04:45.000Z,98954
2019-04-29T04:06:14.000Z,98960
2019-04-29T04:08:18.000Z,98959
2019-04-29T04:09:43.000Z,98959
2019-04-29T04:11:44.000Z,98962
2019-04-29T04:13:10.000Z,98965
2019-04-29T04:15:18.000Z,98964
2019-04-29T04:16:43.000Z,98964
2019-04-29T04:18:48.000Z,98966
2019-04-29T04:20:15.000Z,98967
2019-04-29T04:22:21.000Z,98968
2019-04-29T04:23:48.000Z,98969
2019-04-29T04:25:54.000Z,98970
2019-04-29T04:27:18.000Z,98970
2019-04-29T04:29:21.000Z,98968
2019-04-29T04:30:48.000Z,98971
2019-04-29T04:32:51.000Z,98974
2019-04-29T04:34:16.000Z,98977
2019-04-29T04:36:18.000Z,98980
2019-04-29T04:37:46.000Z,98980
2019-04-29T04:39:56.000Z,98984
2019-04-29T04:41:21.000Z,98985
2019-04-29T04:43:26.000Z,98985
2019-04-29T04:44:49.000Z,98984
2019-04-29T04:46:57.000Z,98982
2019-04-29T04:48:30.000Z,98983
2019-04-29T04:50:37.000Z,98983
2019-04-29T04:52:02.000Z,98984
2019-04-29T04:54:08.000Z,98985
2019-04-29T04:55:36.000Z,98986
2019-04-29T04:57:51.000Z,98987
2019-04-29T04:59:18.000Z,98987
2019-04-29T05:01:24.000Z,98990
2019-04-29T05:02:46.000Z,98992
2019-04-29T05:04:50.000Z,98993
2019-04-29T05:06:14.000Z,98992
2019-04-29T05:08:24.000Z,98991
2019-04-29T05:09:52.000Z,98990
2019-04-29T05:11:58.000Z,98993
2019-04-29T05:13:26.000Z,98996
2019-04-29T05:15:35.000Z,98996
2019-04-29T05:17:06.000Z,98998
2019-04-29T05:19:09.000Z,99000
2019-04-29T05:20:40.000Z,99001
2019-04-29T05:22:46.000Z,99003
2019-04-29T05:24:15.000Z,99004
2019-04-29T05:26:24.000Z,99001
2019-04-29T05:27:52.000Z,99002
2019-04-29T05:30:01.000Z,99004
2019-04-29T05:31:29.000Z,99004
2019-04-29T05:33:33.000Z,99008
2019-04-29T05:35:04.000Z,99014
2019-04-29T05:37:16.000Z,99016
2019-04-29T05:38:48.000Z,99015
2019-04-29T05:41:03.000Z,99015
2019-04-29T05:42:31.000Z,99017
2019-04-29T05:44:41.000Z,99016
2019-04-29T05:46:12.000Z,99016
2019-04-29T05:48:24.000Z,99016
2019-04-29T05:49:59.000Z,99019
2019-04-29T05:52:10.000Z,99022
2019-04-29T05:53:37.000Z,99025
2019-04-29T05:55:48.000Z,99027
2019-04-29T05:57:14.000Z,99026
2019-04-29T05:59:24.000Z,99027
2019-04-29T06:00:51.000Z,99027
2019-04-29T06:03:03.000Z,99028
2019-04-29T06:04:33.000Z,99028
2019-04-29T06:06:41.000Z,99029
2019-04-29T06:08:10.000Z,99026
2019-04-29T06:10:19.000Z,99025
2019-04-29T06:11:56.000Z,99022
2019-04-29T06:14:02.000Z,99024
2019-04-29T06:15:32.000Z,99023
2019-04-29T06:17:42.000Z,99023
2019-04-29T06:19:15.000Z,99024
2019-04-29T06:21:28.000Z,99022
2019-04-29T06:23:01.000Z,99022
2019-04-29T06:30:23.000Z,99023
2019-04-29T06:31:45.000Z,99020
2019-04-29T06:33:46.000Z,99018
2019-04-29T06:35:09.000Z,99019
2019-04-29T06:37:15.000Z,99019
2019-04-29T06:38:38.000Z,99018
2019-04-29T06:40:41.000Z,99015
2019-04-29T06:42:03.000Z,99013
2019-04-29T06:44:04.000Z,99012
2019-04-29T06:45:33.000Z,99013
2019-04-29T06:47:35.000Z,99012
2019-04-29T06:48:58.000Z,99014
2019-04-29T06:51:11.000Z,99014
2019-04-29T06:52:33.000Z,99014
2019-04-29T06:54:34.000Z,99013
2019-04-29T06:55:58.000Z,99013
2019-04-29T06:58:00.000Z,99012
2019-04-29T06:59:22.000Z,99015
2019-04-29T07:01:23.000Z,99013
2019-04-29T07:02:45.000Z,99013
2019-04-29T07:04:52.000Z,99010
2019-04-29T07:06:14.000Z,99012
2019-04-29T07:08:15.000Z,99014
2019-04-29T07:09:37.000Z,99014
2019-04-29T07:11:39.000Z,99014
2019-04-29T07:13:03.000Z,99014
2019-04-29T07:15:04.000Z,99015
2019-04-29T07:16:33.000Z,99015
2019-04-29T07:18:35.000Z,99015
2019-04-29T07:20:02.000Z,99016
2019-04-29T07:22:05.000Z,99016
2019-04-29T07:23:27.000Z,99013
2019-04-29T07:25:29.000Z,99013
2019-04-29T07:26:53.000Z,99012
2019-04-29T07:29:05.000Z,99011
2019-04-29T07:30:27.000Z,99009
2019-04-29T07:32:33.000Z,99009
2019-04-29T07:33:56.000Z,99007
2019-04-29T07:36:01.000Z,99004
2019-04-29T07:37:34.000Z,99003
2019-04-29T07:39:36.000Z,99003
2019-04-29T07:40:59.000Z,99002
2019-04-29T07:43:01.000Z,99004
2019-04-29T07:44:30.000Z,99004
2019-04-29T07:46:45.000Z,99004
2019-04-29T07:48:20.000Z,99007
2019-04-29T07:50:22.000Z,99004
2019-04-29T07:51:50.000Z,99001
2019-04-29T07:53:51.000Z,98998
2019-04-29T07:55:15.000Z,98994
2019-04-29T07:57:18.000Z,98993
2019-04-29T07:58:40.000Z,98988
2019-04-29T08:00:43.000Z,98984
2019-04-29T08:02:11.000Z,98986
2019-04-29T08:04:15.000Z,98985
2019-04-29T08:05:39.000Z,98986
2019-04-29T08:07:44.000Z,98988
2019-04-29T08:09:08.000Z,98990
2019-04-29T08:11:11.000Z,98989
2019-04-29T08:12:36.000Z,98989
2019-04-29T08:14:38.000Z,98988
2019-04-29T08:16:01.000Z,98992
2019-04-29T08:18:04.000Z,98994
2019-04-29T08:19:33.000Z,98997
2019-04-29T08:21:36.000Z,98996
2019-04-29T08:23:01.000Z,98994
2019-04-29T08:25:07.000Z,98991
2019-04-29T08:26:33.000Z,98989
2019-04-29T08:28:41.000Z,98989
2019-04-29T08:30:05.000Z,98984
2019-04-29T08:32:14.000Z,98981
2019-04-29T08:33:41.000Z,98982
2019-04-29T08:35:50.000Z,98982
2019-04-29T08:37:17.000Z,98979
2019-04-29T08:39:18.000Z,98978
2019-04-29T08:40:46.000Z,98977
2019-04-29T08:42:56.000Z,98980
2019-04-29T08:44:20.000Z,98981
2019-04-29T08:46:26.000Z,98979
2019-04-29T08:47:53.000Z,98977
2019-04-29T08:50:03.000Z,98975
2019-04-29T08:51:27.000Z,98970
2019-04-29T08:53:34.000Z,98970
2019-04-29T08:54:59.000Z,98969
2019-04-29T08:57:05.000Z,98968
2019-04-29T08:58:29.000Z,98968
2019-04-29T09:00:32.000Z,98968
2019-04-29T09:01:58.000Z,98970
2019-04-29T09:04:06.000Z,98966
2019-04-29T09:05:28.000Z,98966
2019-04-29T09:07:33.000Z,98966
2019-04-29T09:08:58.000Z,98964
2019-04-29T09:11:10.000Z,98965
2019-04-29T09:12:36.000Z,98963
2019-04-29T09:14:42.000Z,98961
2019-04-29T09:16:04.000Z,98955
2019-04-29T09:18:12.000Z,98948
2019-04-29T09:19:35.000Z,98945
2019-04-29T09:21:40.000Z,98944
2019-04-29T09:23:06.000Z,98943
2019-04-29T09:25:13.000Z,98941
2019-04-29T09:26:41.000Z,98938
2019-04-29T09:28:49.000Z,98937
2019-04-29T09:30:17.000Z,98937
2019-04-29T09:32:21.000Z,98939
2019-04-29T09:33:49.000Z,98937
2019-04-29T09:36:07.000Z,98944
2019-04-29T09:37:41.000Z,98944
2019-04-29T09:39:48.000Z,98943
2019-04-29T09:41:14.000Z,98942
2019-04-29T09:43:18.000Z,98943
2019-04-29T09:44:48.000Z,98945
2019-04-29T09:46:58.000Z,98937
2019-04-29T09:48:31.000Z,98937
2019-04-29T09:50:35.000Z,98937
2019-04-29T09:52:08.000Z,98938
2019-04-29T09:54:16.000Z,98938
2019-04-29T09:55:47.000Z,98939
2019-04-29T09:57:55.000Z,98941
2019-04-29T09:59:18.000Z,98941
2019-04-29T10:01:23.000Z,98944
2019-04-29T10:02:51.000Z,98943
2019-04-29T10:04:59.000Z,98940
2019-04-29T10:06:25.000Z,98938
2019-04-29T10:08:31.000Z,98936
2019-04-29T10:09:56.000Z,98936
2019-04-29T10:12:07.000Z,98933
2019-04-29T10:13:36.000Z,98932
2019-04-29T10:15:41.000Z,98929
2019-04-29T10:17:11.000Z,98928
2019-04-29T10:19:22.000Z,98924
2019-04-29T10:20:49.000Z,98917
2019-04-29T10:22:55.000Z,98914
2019-04-29T10:24:22.000Z,98915
2019-04-29T10:26:32.000Z,98915
2019-04-29T10:28:05.000Z,98915
2019-04-29T10:30:12.000Z,98912
2019-04-29T10:31:44.000Z,98909
2019-04-29T10:33:53.000Z,98905
2019-04-29T10:35:31.000Z,98900
2019-04-29T10:37:39.000Z,98894
2019-04-29T10:39:08.000Z,98897
2019-04-29T10:41:14.000Z,98895
2019-04-29T10:42:48.000Z,98891
2019-04-29T10:44:58.000Z,98890
2019-04-29T10:46:29.000Z,98886
2019-04-29T10:48:41.000Z,98882
2019-04-29T10:50:04.000Z,98880
2019-04-29T10:52:15.000Z,98873
2019-04-29T10:53:48.000Z,98872
2019-04-29T10:56:06.000Z,98871
2019-04-29T10:57:38.000Z,98864
2019-04-29T10:59:45.000Z,98862
2019-04-29T11:01:15.000Z,98862
2019-04-29T11:03:24.000Z,98857
2019-04-29T11:04:53.000Z,98853
2019-04-29T11:07:02.000Z,98848
2019-04-29T11:08:44.000Z,98843
2019-04-29T11:10:54.000Z,98840
2019-04-29T11:12:31.000Z,98835
2019-04-29T11:14:39.000Z,98831
2019-04-29T11:16:13.000Z,98827
2019-04-29T11:18:22.000Z,98818
2019-04-29T11:19:55.000Z,98817
2019-04-29T11:27:19.000Z,98813
2019-04-29T11:28:41.000Z,98807
2019-04-29T11:30:42.000Z,98805
2019-04-29T11:32:04.000Z,98807
2019-04-29T11:34:05.000Z,98810
2019-04-29T11:35:27.000Z,98812
2019-04-29T11:37:30.000Z,98808
2019-04-29T11:38:53.000Z,98807
2019-04-29T11:40:54.000Z,98802
2019-04-29T11:42:16.000Z,98804
2019-04-29T11:44:17.000Z,98800
2019-04-29T11:45:39.000Z,98800
2019-04-29T11:47:42.000Z,98793
2019-04-29T11:49:04.000Z,98789
2019-04-29T11:51:04.000Z,98787
2019-04-29T11:52:27.000Z,98783
2019-04-29T11:54:29.000Z,98780
2019-04-29T11:55:51.000Z,98781
2019-04-29T11:57:58.000Z,98781
2019-04-29T11:59:20.000Z,98783
2019-04-29T12:01:21.000Z,98784
2019-04-29T12:02:43.000Z,98782
2019-04-29T12:04:46.000Z,98784
2019-04-29T12:06:09.000Z,98786
2019-04-29T12:08:11.000Z,98784
2019-04-29T12:09:39.000Z,98783
2019-04-29T12:11:40.000Z,98781
2019-04-29T12:13:03.000Z,98777
2019-04-29T12:15:04.000Z,98775
2019-04-29T12:16:26.000Z,98772
2019-04-29T12:18:27.000Z,98771
2019-04-29T12:19:49.000Z,98771
2019-04-29T12:21:50.000Z,98770
2019-04-29T12:23:12.000Z,98763
2019-04-29T12:25:17.000Z,98764
2019-04-29T12:26:40.000Z,98763
2019-04-29T12:28:45.000Z,98760
2019-04-29T12:30:08.000Z,98760
2019-04-29T12:32:09.000Z,98759
2019-04-29T12:33:33.000Z,98762
2019-04-29T12:35:38.000Z,98762
2019-04-29T12:37:13.000Z,98759
2019-04-29T12:39:15.000Z,98756
2019-04-29T12:40:38.000Z,98757
2019-04-29T12:42:42.000Z,98755
2019-04-29T12:44:06.000Z,98754
2019-04-29T12:46:07.000Z,98749
2019-04-29T12:47:32.000Z,98749
2019-04-29T12:49:34.000Z,98747
2019-04-29T12:50:56.000Z,98744
2019-04-29T12:53:01.000Z,98746
2019-04-29T12:54:24.000Z,98742
2019-04-29T12:56:25.000Z,98741
2019-04-29T12:57:49.000Z,98743
2019-04-29T12:59:55.000Z,98742
2019-04-29T13:01:18.000Z,98743
2019-04-29T13:03:19.000Z,98742
2019-04-29T13:04:41.000Z,98741
2019-04-29T13:06:52.000Z,98741
2019-04-29T13:08:18.000Z,98744
2019-04-29T13:10:21.000Z,98745
2019-04-29T13:11:44.000Z,98746
2019-04-29T13:13:52.000Z,98748
2019-04-29T13:15:24.000Z,98744
2019-04-29T13:17:25.000Z,98739
2019-04-29T13:18:54.000Z,98736
2019-04-29T13:20:57.000Z,98737
2019-04-29T13:22:34.000Z,98736
2019-04-29T13:24:37.000Z,98737
2019-04-29T13:26:06.000Z,98738
2019-04-29T13:28:10.000Z,98739
2019-04-29T13:29:36.000Z,98740
2019-04-29T13:31:39.000Z,98739
2019-04-29T13:33:03.000Z,98738
2019-04-29T13:35:14.000Z,98736
2019-04-29T13:36:37.000Z,98738
2019-04-29T13:38:43.000Z,98738
2019-04-29T13:40:05.000Z,98738
2019-04-29T13:42:07.000Z,98738
2019-04-29T13:43:35.000Z,98737
2019-04-29T13:45:39.000Z,98737
2019-04-29T13:47:02.000Z,98734
2019-04-29T13:49:05.000Z,98732
2019-04-29T13:50:43.000Z,98728
2019-04-29T13:52:47.000Z,98725
2019-04-29T13:54:11.000Z,98725
2019-04-29T13:56:19.000Z,98726
2019-04-29T13:58:10.000Z,98732
2019-04-29T14:00:16.000Z,98731
2019-04-29T14:01:51.000Z,98728
2019-04-29T14:04:06.000Z,98725
2019-04-29T14:05:33.000Z,98726
2019-04-29T14:07:44.000Z,98724
2019-04-29T14:09:24.000Z,98725
2019-04-29T14:11:33.000Z,98725
2019-04-29T14:13:02.000Z,98727
2019-04-29T14:15:25.000Z,98726
2019-04-29T14:16:51.000Z,98729
2019-04-29T14:19:25.000Z,98726
2019-04-29T14:21:11.000Z,98725
2019-04-29T14:23:13.000Z,98721
2019-04-29T14:24:40.000Z,98721
2019-04-29T14:26:44.000Z,98724
2019-04-29T14:28:20.000Z,98727
2019-04-29T14:30:26.000Z,98730
2019-04-29T14:32:03.000Z,98727
2019-04-29T14:34:12.000Z,98726
2019-04-29T14:35:40.000Z,98725
2019-04-29T14:37:52.000Z,98723
2019-04-29T14:39:23.000Z,98723
2019-04-29T14:41:42.000Z,98723
2019-04-29T14:43:14.000Z,98720
2019-04-29T14:45:36.000Z,98719
2019-04-29T14:47:00.000Z,98719
2019-04-29T14:49:07.000Z,98719
2019-04-29T14:50:36.000Z,98716
2019-04-29T14:52:42.000Z,98718
2019-04-29T14:54:15.000Z,98720
2019-04-29T14:56:23.000Z,98732
2019-04-29T14:57:49.000Z,98735
2019-04-29T14:59:55.000Z,98733
2019-04-29T15:01:24.000Z,98731
2019-04-29T15:03:30.000Z,98725
2019-04-29T15:04:55.000Z,98719
2019-04-29T15:07:03.000Z,98715
2019-04-29T15:08:31.000Z,98714
2019-04-29T15:10:42.000Z,98716
2019-04-29T15:12:10.000Z,98716
2019-04-29T15:14:16.000Z,98717
2019-04-29T15:15:51.000Z,98710
2019-04-29T15:18:17.000Z,98700
2019-04-29T15:20:03.000Z,98698
2019-04-29T15:22:11.000Z,98695
2019-04-29T15:23:41.000Z,98687
2019-04-29T15:25:47.000Z,98684
2019-04-29T15:27:22.000Z,98684
2019-04-29T15:29:31.000Z,98684
2019-04-29T15:31:05.000Z,98683
2019-04-29T15:33:22.000Z,98686
2019-04-29T15:34:51.000Z,98689
2019-04-29T15:37:06.000Z,98686
2019-04-29T15:38:33.000Z,98685
2019-04-29T15:40:41.000Z,98686
2019-04-29T15:42:13.000Z,98690
2019-04-29T15:44:22.000Z,98692
2019-04-29T15:45:54.000Z,98693
2019-04-29T15:48:08.000Z,98694
2019-04-29T15:49:39.000Z,98694
2019-04-29T15:51:53.000Z,98692
2019-04-29T15:53:23.000Z,98694
2019-04-29T15:55:27.000Z,98695
2019-04-29T15:57:00.000Z,98698
2019-04-29T15:59:17.000Z,98703
2019-04-29T16:00:47.000Z,98706
2019-04-29T16:02:57.000Z,98708
2019-04-29T16:04:26.000Z,98708
2019-04-29T16:06:42.000Z,98707
2019-04-29T16:08:08.000Z,98705
2019-04-29T16:10:18.000Z,98698
2019-04-29T16:13:50.000Z,98692
2019-04-29T16:16:19.000Z,98691
2019-04-29T16:17:47.000Z,98690
2019-04-29T16:19:55.000Z,98688
2019-04-29T16:21:25.000Z,98686
2019-04-29T16:28:48.000Z,98692
2019-04-29T16:30:10.000Z,98690
2019-04-29T16:32:11.000Z,98689
2019-04-29T16:33:34.000Z,98686
2019-04-29T16:35:34.000Z,98689
2019-04-29T16:36:57.000Z,98691
2019-04-29T16:38:57.000Z,98694
2019-04-29T16:40:19.000Z,98691
2019-04-29T16:42:20.000Z,98693
2019-04-29T16:43:42.000Z,98689
2019-04-29T16:45:43.000Z,98692
2019-04-29T16:47:13.000Z,98694
2019-04-29T16:49:16.000Z,98693
2019-04-29T16:50:38.000Z,98691
2019-04-29T16:52:40.000Z,98691
2019-04-29T16:54:06.000Z,98692
2019-04-29T16:56:07.000Z,98696
2019-04-29T16:57:29.000Z,98696
2019-04-29T16:59:30.000Z,98695
2019-04-29T17:00:52.000Z,98696
2019-04-29T17:02:55.000Z,98698
2019-04-29T17:04:18.000Z,98699
2019-04-29T17:06:19.000Z,98700
2019-04-29T17:07:41.000Z,98696
2019-04-29T17:09:42.000Z,98696
2019-04-29T17:11:05.000Z,98695
2019-04-29T17:13:06.000Z,98697
2019-04-29T17:14:36.000Z,98696
2019-04-29T17:17:04.000Z,98694
2019-04-29T17:18:27.000Z,98696
2019-04-29T17:20:30.000Z,98694
2019-04-29T17:21:52.000Z,98690
2019-04-29T17:23:55.000Z,98688
2019-04-29T17:25:16.000Z,98688
2019-04-29T17:27:19.000Z,98690
2019-04-29T17:34:37.000Z,98696
2019-04-29T17:36:20.000Z,98695
2019-04-29T17:38:26.000Z,98695
2019-04-29T17:39:48.000Z,98693
2019-04-29T17:41:49.000Z,98691
2019-04-29T17:43:11.000Z,98689
2019-04-29T17:45:12.000Z,98688
2019-04-29T17:46:51.000Z,98690
2019-04-29T17:48:52.000Z,98686
2019-04-29T17:50:15.000Z,98692
2019-04-29T17:52:16.000Z,98693
2019-04-29T17:53:40.000Z,98693
2019-04-29T17:55:40.000Z,98693
2019-04-29T17:57:03.000Z,98693
2019-04-29T17:59:27.000Z,98699
2019-04-29T18:00:52.000Z,98701
2019-04-29T18:03:00.000Z,98707
2019-04-29T18:04:23.000Z,98714
2019-04-29T18:06:23.000Z,98718
2019-04-29T18:07:49.000Z,98721
2019-04-29T18:09:52.000Z,98723
2019-04-29T18:11:17.000Z,98723
2019-04-29T18:13:18.000Z,98721
2019-04-29T18:14:48.000Z,98720
2019-04-29T18:16:49.000Z,98723
2019-04-29T18:18:12.000Z,98724
2019-04-29T18:20:21.000Z,98724
2019-04-29T18:21:55.000Z,98724
2019-04-29T18:24:02.000Z,98723
2019-04-29T18:25:24.000Z,98725
2019-04-29T18:27:32.000Z,98724
2019-04-29T18:29:00.000Z,98722
2019-04-29T18:31:08.000Z,98719
2019-04-29T18:32:30.000Z,98721
2019-04-29T18:34:37.000Z,98724
2019-04-29T18:36:00.000Z,98724
2019-04-29T18:38:08.000Z,98722
2019-04-29T18:39:35.000Z,98724
2019-04-29T18:41:36.000Z,98722
2019-04-29T18:42:57.000Z,98728
2019-04-29T18:44:59.000Z,98727
2019-04-29T18:46:25.000Z,98732
2019-04-29T18:48:26.000Z,98735
2019-04-29T18:49:49.000Z,98735
2019-04-29T18:51:50.000Z,98739
2019-04-29T18:53:13.000Z,98740
2019-04-29T18:55:18.000Z,98743
2019-04-29T18:56:42.000Z,98748
2019-04-29T18:58:45.000Z,98748
2019-04-29T19:00:12.000Z,98750
2019-04-29T19:02:23.000Z,98751
2019-04-29T19:03:49.000Z,98754
2019-04-29T19:05:51.000Z,98755
2019-04-29T19:07:14.000Z,98752
2019-04-29T19:09:17.000Z,98753
2019-04-29T19:10:45.000Z,98753
2019-04-29T19:12:53.000Z,98754
2019-04-29T19:14:22.000Z,98752
2019-04-29T19:16:31.000Z,98754
2019-04-29T19:17:56.000Z,98756
2019-04-29T19:20:06.000Z,98757
2019-04-29T19:21:34.000Z,98759
2019-04-29T19:23:36.000Z,98759
2019-04-29T19:24:59.000Z,98763
2019-04-29T19:27:02.000Z,98762
2019-04-29T19:28:24.000Z,98760
2019-04-29T19:30:35.000Z,98759
2019-04-29T19:31:58.000Z,98760
2019-04-29T19:34:04.000Z,98762
2019-04-29T19:35:31.000Z,98764
2019-04-29T19:37:43.000Z,98767
2019-04-29T19:39:08.000Z,98770
2019-04-29T19:41:13.000Z,98772
2019-04-29T19:42:42.000Z,98773
2019-04-29T19:44:46.000Z,98772
2019-04-29T19:46:08.000Z,98772
2019-04-29T19:48:27.000Z,98769
2019-04-29T19:49:52.000Z,98769
2019-04-29T19:51:56.000Z,98768
2019-04-29T19:53:20.000Z,98767
2019-04-29T19:55:25.000Z,98767
2019-04-29T19:56:57.000Z,98769
2019-04-29T19:59:13.000Z,98769
2019-04-29T20:00:40.000Z,98769
2019-04-29T20:02:47.000Z,98766
2019-04-29T20:04:15.000Z,98766
2019-04-29T20:06:26.000Z,98768
2019-04-29T20:07:56.000Z,98771
2019-04-29T20:10:02.000Z,98773
2019-04-29T20:11:39.000Z,98773
2019-04-29T20:13:50.000Z,98773
2019-04-29T20:15:31.000Z,98773
2019-04-29T20:17:36.000Z,98772
2019-04-29T20:19:02.000Z,98774
2019-04-29T20:21:21.000Z,98781
2019-04-29T20:22:51.000Z,98779
2019-04-29T20:25:01.000Z,98774
2019-04-29T20:26:27.000Z,98772
2019-04-29T20:28:34.000Z,98771
2019-04-29T20:30:01.000Z,98768
2019-04-29T20:32:12.000Z,98769
2019-04-29T20:33:36.000Z,98767
2019-04-29T20:35:40.000Z,98767
2019-04-29T20:37:16.000Z,98766
2019-04-29T20:39:25.000Z,98766
2019-04-29T20:40:52.000Z,98767
2019-04-29T20:42:57.000Z,98768
2019-04-29T20:44:19.000Z,98769
2019-04-29T20:46:23.000Z,98771
2019-04-29T20:48:03.000Z,98774
2019-04-29T20:50:09.000Z,98773
2019-04-29T20:51:40.000Z,98776
2019-04-29T20:53:54.000Z,98775
2019-04-29T20:55:18.000Z,98772
2019-04-29T20:57:23.000Z,98772
2019-04-29T20:58:56.000Z,98771
2019-04-29T21:01:01.000Z,98771
2019-04-29T21:02:31.000Z,98771
2019-04-29T21:06:16.000Z,98768
2019-04-29T21:08:22.000Z,98769
2019-04-29T21:08:55.000Z,98769
2019-04-29T21:10:25.000Z,98771
2019-04-29T21:12:28.000Z,98774
2019-04-29T21:14:03.000Z,98774
2019-04-29T21:16:12.000Z,98778
2019-04-29T21:17:43.000Z,98777
2019-04-29T21:19:55.000Z,98780
2019-04-29T21:21:21.000Z,98778
2019-04-29T21:23:32.000Z,98778
2019-04-29T21:25:04.000Z,98780
2019-04-29T21:27:13.000Z,98779
2019-04-29T21:28:50.000Z,98779
2019-04-29T21:31:00.000Z,98777
2019-04-29T21:32:31.000Z,98777
2019-04-29T21:34:48.000Z,98777
2019-04-29T21:36:15.000Z,98777
2019-04-29T21:38:21.000Z,98779
2019-04-29T21:39:53.000Z,98779
2019-04-29T21:42:07.000Z,98778
2019-04-29T21:43:39.000Z,98780
2019-04-29T21:45:48.000Z,98777
2019-04-29T21:47:17.000Z,98778
2019-04-29T21:49:30.000Z,98780
2019-04-29T21:51:17.000Z,98784
2019-04-29T21:53:24.000Z,98785
2019-04-29T21:54:52.000Z,98787
2019-04-29T21:57:06.000Z,98785
2019-04-29T21:58:34.000Z,98784
2019-04-29T22:00:47.000Z,98782
2019-04-29T22:02:21.000Z,98782
2019-04-29T22:04:34.000Z,98782
2019-04-29T22:06:06.000Z,98782
2019-04-29T22:08:16.000Z,98783
2019-04-29T22:09:51.000Z,98784
2019-04-29T22:12:00.000Z,98786
2019-04-29T22:13:32.000Z,98786
2019-04-29T22:15:49.000Z,98790
2019-04-29T22:17:18.000Z,98790
2019-04-29T22:19:28.000Z,98789
2019-04-29T22:21:01.000Z,98791
2019-04-29T22:23:13.000Z,98791
2019-04-29T22:24:48.000Z,98792
2019-04-29T22:32:16.000Z,98795
2019-04-29T22:33:41.000Z,98792
2019-04-29T22:35:42.000Z,98795
2019-04-29T22:37:04.000Z,98793
2019-04-29T22:39:06.000Z,98791
2019-04-29T22:40:28.000Z,98791
2019-04-29T22:42:29.000Z,98791
2019-04-29T22:43:52.000Z,98787
2019-04-29T22:45:53.000Z,98786
2019-04-29T22:47:15.000Z,98783
2019-04-29T22:49:25.000Z,98781
2019-04-29T22:50:52.000Z,98780
2019-04-29T22:52:53.000Z,98784
2019-04-29T22:54:18.000Z,98783
2019-04-29T22:56:25.000Z,98785
2019-04-29T22:57:51.000Z,98785
2019-04-29T22:59:53.000Z,98784
2019-04-29T23:01:18.000Z,98785
2019-04-29T23:03:25.000Z,98783
2019-04-29T23:06:54.000Z,98785
2019-04-29T23:08:17.000Z,98783
2019-04-29T23:10:18.000Z,98784
2019-04-29T23:11:49.000Z,98783
2019-04-29T23:13:51.000Z,98783
2019-04-29T23:15:14.000Z,98781
2019-04-29T23:17:24.000Z,98779
2019-04-29T23:18:47.000Z,98779
2019-04-29T23:20:49.000Z,98777
2019-04-29T23:22:12.000Z,98776
2019-04-29T23:24:22.000Z,98774
2019-04-29T23:25:45.000Z,98772
2019-04-29T23:27:50.000Z,98773
2019-04-29T23:29:15.000Z,98774
2019-04-29T23:31:18.000Z,98773